Kinston Regional Jetport At Stallings Field Kinston US
ICAO: KISO
IATA: ISO
Category: Medium
Scheduled Services: No

Elevation: 93 ft
TransAlt. 18000 ft.

Airport Communications:
SEYMOUR JOHN APP/DEP:127.3
AWOS 3:132.75
CTAF:120.6
GND:121.9
RALEIGH RDO:109.6
TWR:120.6
UNICOM:122.95

KISO Zoom In..

If Map Doesn't Load, Click Here

Runways:

(A) RW 05 length 11500 ft width 150 ft
ILS 111.30 / hdg 50

(B) RW 23 length 11500 ft width 150 ft
---- / hdg 230

Location; KISO
Day. 26 / Time. 10.22 Zulu
* Altimeter: 30.06
* Temperature: 23° c. 73.4°f.
* Wind from: 000° Speed 00 kn.
Dewpoint: 23° c.
Visibility: 2 Statute Miles.
Clouds: Overcast 300 ft.
Conditions: Mist.

KISO 261022Z 00000KT 2SM BR OVC003 23/23 A3006


Wind - Calm.

 
 
jpsmedia.com for Web Design worldairports.se 2018   terms of use